Data for 04/18/2013

Time Sea-Level Adjusted Pressure Absolute Pressure Temperature Relative Humidity Dew Point   
(mb) (inHg) (mb) (inHg) (C) (F) (%) (C) (F)
00:05 1023 30.21 852 25.16 -7.2 19.1 68 -12.1 10.2
00:10 1023 30.21 852 25.16 -7.2 19 68 -12.1 10.2
00:15 1023 30.21 852 25.16 -7.3 18.8 70 -12 10.4
00:20 1023 30.21 852 25.16 -7.4 18.7 69 -12.2 10
00:25 1023 30.21 852 25.16 -7.4 18.7 69 -12.1 10.1
00:30 1023 30.21 852 25.16 -7.4 18.6 69 -12.3 9.9
00:35 1023 30.21 852 25.16 -7.4 18.6 69 -12.2 10
00:40 1023 30.21 852 25.16 -7.5 18.5 69 -12.2 10.1
00:45 1023 30.21 852 25.16 -7.6 18.4 70 -12.1 10.1
00:50 1023 30.21 852 25.16 -7.5 18.5 70 -12.1 10.1
00:55 1023 30.21 852 25.16 -7.6 18.3 70 -12.2 10
01:00 1023 30.21 852 25.16 -7.7 18.1 70 -12.3 9.8
01:05 1023 30.21 852 25.16 -7.8 18 70 -12.3 9.8
01:10 1023 30.21 852 25.16 -7.8 17.9 70 -12.4 9.7
01:15 1023 30.21 852 25.16 -7.8 17.9 69 -12.5 9.5
01:20 1023 30.21 852 25.16 -7.9 17.8 69 -12.6 9.3
01:25 1023 30.21 852 25.16 -7.9 17.8 68 -12.8 9
01:30 1023 30.21 852 25.16 -7.8 18 67 -12.8 8.9
01:35 1023 30.21 852 25.16 -7.8 18 67 -12.8 8.9
01:40 1023 30.21 852 25.16 -7.8 18 67 -12.8 8.9
01:45 1023 30.21 852 25.16 -7.8 17.9 67 -13 8.7
01:50 1023 30.21 852 25.16 -7.8 18 66 -13.1 8.5
01:55 1023 30.21 852 25.16 -7.7 18.2 65 -13.1 8.4
02:00 1023 30.21 852 25.16 -7.7 18.2 66 -13 8.5
02:05 1023 30.21 852 25.16 -7.9 17.9 66 -13.1 8.4
02:10 1023 30.21 852 25.16 -8.1 17.4 66 -13.3 8
02:15 1023 30.21 852 25.16 -7.9 17.8 65 -13.4 7.9
02:20 1023 30.21 852 25.16 -7.8 17.9 67 -12.9 8.7
02:25 1023 30.21 852 25.16 -8 17.5 68 -13 8.6
02:30 1023 30.21 852 25.16 -8.1 17.4 68 -13 8.6
02:35 1023 30.21 852 25.16 -8.2 17.2 69 -12.9 8.7
02:40 1023 30.21 852 25.16 -8.5 16.8 70 -13 8.6
02:45 1023 30.21 852 25.16 -8.5 16.7 70 -13.1 8.4
02:50 1023 30.21 852 25.16 -8.5 16.6 71 -13 8.7
02:55 1023 30.21 852 25.16 -8.6 16.6 70 -13 8.5
03:00 1023 30.21 852 25.16 -8.4 16.8 70 -13 8.5
03:05 1023 30.21 852 25.16 -8.4 16.9 69 -13 8.5
03:10 1023 30.21 852 25.16 -8.3 17 69 -13.1 8.5
03:15 1023 30.21 852 25.16 -8.3 17 69 -13.1 8.4
03:20 1023 30.21 852 25.16 -8.2 17.2 68 -13 8.5
03:25 1023 30.21 852 25.16 -8.1 17.4 68 -13.1 8.4
03:30 1023 30.21 852 25.16 -8 17.5 67 -13.1 8.4
03:35 1023 30.21 852 25.16 -8 17.5 67 -13.1 8.4
03:40 1023 30.21 852 25.16 -8.1 17.5 68 -13 8.6
03:45 1023 30.21 852 25.16 -8.4 17 69 -13.1 8.4
03:50 1023 30.21 852 25.16 -8.5 16.7 69 -13.2 8.2
03:55 1023 30.21 852 25.16 -8.4 16.8 67 -13.5 7.7
04:00 1023 30.21 852 25.16 -8.1 17.4 66 -13.4 7.8
04:05 1023 30.21 852 25.16 -8 17.7 65 -13.5 7.7
04:10 1023 30.21 852 25.16 -7.8 18 64 -13.5 7.7
04:15 1023 30.21 852 25.16 -7.8 17.9 65 -13.4 7.9
04:20 1023 30.21 852 25.16 -7.9 17.7 65 -13.5 7.8
04:25 1023 30.21 852 25.16 -8 17.6 65 -13.4 7.8
04:30 1023 30.21 852 25.16 -8.1 17.4 66 -13.4 7.9
04:35 1023 30.21 852 25.16 -8.2 17.2 67 -13.4 7.9
04:40 1023 30.21 852 25.16 -8.3 17 67 -13.5 7.8
04:45 1023 30.21 852 25.16 -8.3 17.1 66 -13.6 7.5
04:50 1023 30.21 852 25.16 -8.3 17.1 66 -13.6 7.5
04:55 1023 30.21 852 25.16 -8.2 17.3 64 -13.8 7.2
05:00 1023 30.21 852 25.16 -7.9 17.8 61 -14.1 6.6
05:05 1023 30.21 852 25.16 -7.6 18.4 61 -13.7 7.3
05:10 1023 30.21 852 25.16 -7.9 17.7 64 -13.6 7.5
05:15 1023 30.21 852 25.16 -8.4 17 65 -13.8 7.2
05:20 1022 30.18 852 25.16 -8.4 16.9 65 -13.8 7.1
05:25 1022 30.18 852 25.16 -8.2 17.3 64 -13.8 7.2
05:30 1022 30.18 852 25.16 -8.1 17.5 64 -13.7 7.3
05:35 1022 30.18 852 25.16 -8.1 17.5 64 -13.7 7.4
05:40 1022 30.18 852 25.16 -8 17.6 64 -13.7 7.4
05:45 1023 30.21 852 25.16 -8.2 17.3 65 -13.7 7.4
05:50 1023 30.21 852 25.16 -8.1 17.4 65 -13.7 7.4
05:55 1022 30.18 852 25.16 -7.8 18 64 -13.5 7.7
06:00 1023 30.21 852 25.16 -7.7 18.1 64 -13.4 7.8
06:05 1023 30.21 852 25.16 -7.7 18.2 63 -13.6 7.6
06:10 1023 30.21 852 25.16 -7.4 18.7 62 -13.4 7.8
06:15 1023 30.21 852 25.16 -7.2 19.1 62 -13.3 8
06:20 1023 30.21 852 25.16 -6.8 19.8 60 -13.2 8.3
06:25 1023 30.21 852 25.16 -6.6 20.1 60 -13.2 8.3
06:30 1023 30.21 852 25.16 -6.5 20.3 59 -13.2 8.3
06:35 1023 30.21 852 25.16 -6.1 21 58 -13.1 8.4
06:40 1023 30.21 852 25.16 -5.7 21.7 57 -12.9 8.7
06:45 1023 30.21 852 25.16 -5.5 22.2 57 -12.7 9.1
06:50 1023 30.21 852 25.16 -5 23 54 -13 8.7
06:55 1023 30.21 852 25.16 -4.7 23.5 53 -12.9 8.9
07:00 1023 30.21 852 25.16 -4.4 24 52 -12.8 8.9
07:05 1023 30.21 852 25.16 -4 24.9 51 -12.6 9.4
07:10 1023 30.21 852 25.16 -3.5 25.7 49 -12.8 9
07:15 1023 30.21 852 25.16 -3 26.6 49 -12.3 9.9
07:20 1023 30.21 852 25.16 -2.3 27.8 47 -12.2 10
07:25 1023 30.21 852 25.16 -2.1 28.3 46 -12.1 10.2
07:30 1023 30.21 852 25.16 -1.6 29 47 -11.5 11.2
07:35 1023 30.21 852 25.16 -1 30.2 46 -11.2 11.8
07:40 1023 30.21 852 25.16 -0.3 31.4 44 -11.3 11.7
07:45 1023 30.21 852 25.16 0.2 32.4 42 -11.2 11.8
07:50 1023 30.21 852 25.16 0.4 32.7 40 -11.6 11.1
07:55 1023 30.21 852 25.16 0.4 32.7 40 -11.6 11.2
08:00 1023 30.21 852 25.16 0.8 33.5 37 -12.4 9.7
08:05 1023 30.21 852 25.16 1.4 34.5 36 -12 10.3
08:10 1023 30.21 852 25.16 1.6 34.8 36 -11.9 10.6
08:15 1023 30.21 852 25.16 1.6 34.9 37 -11.6 11
08:20 1023 30.21 852 25.16 1.5 34.8 36 -12 10.5
08:25 1023 30.21 852 25.16 1.9 35.5 36 -11.8 10.7
08:30 1023 30.21 852 25.16 2.5 36.5 33 -12.3 9.8
08:35 1023 30.21 852 25.16 2.8 37.1 33 -11.9 10.6
08:40 1023 30.21 852 25.16 2.5 36.5 34 -12 10.4
08:45 1023 30.21 852 25.16 2.4 36.3 35 -11.7 10.9
08:50 1023 30.21 852 25.16 2.2 35.9 35 -11.7 11
08:55 1023 30.21 852 25.16 2.3 36.1 35 -11.7 11
09:00 1023 30.21 852 25.16 2.2 36 35 -11.7 10.9
09:05 1023 30.21 852 25.16 2.3 36.1 35 -11.6 11.1
09:10 1023 30.21 852 25.16 2.5 36.5 34 -11.7 11
09:15 1023 30.21 852 25.16 2.5 36.5 33 -12.3 9.8
09:20 1023 30.21 852 25.16 2.3 36.2 33 -12.4 9.7
09:25 1023 30.21 852 25.16 2.5 36.5 33 -12.2 10
09:30 1023 30.21 852 25.16 2.8 37 32 -12.3 9.9
09:35 1023 30.21 852 25.16 3 37.3 32 -12.4 9.7
09:40 1023 30.21 852 25.16 2.9 37.3 31 -12.6 9.4
09:45 1023 30.21 852 25.16 3.2 37.8 31 -12.4 9.8
09:50 1023 30.21 852 25.16 3.4 38.1 30 -12.7 9.1
09:55 1023 30.21 852 25.16 3.5 38.3 30 -12.7 9.1
10:00 1023 30.21 852 25.16 3.7 38.6 30 -12.5 9.5
10:05 1023 30.21 852 25.16 4.5 40 29 -12.1 10.2
10:10 1023 30.21 852 25.16 4 39.3 30 -12.2 10
10:15 1023 30.21 852 25.16 4.4 39.9 29 -12.1 10.2
10:20 1023 30.21 852 25.16 4.4 40 29 -11.9 10.6
10:25 1023 30.21 852 25.16 4 39.2 31 -11.5 11.2
10:30 1023 30.21 852 25.16 3.8 38.8 31 -11.7 10.9
10:35 1023 30.21 852 25.16 4.1 39.4 31 -11.7 10.9
10:40 1023 30.21 852 25.16 4 39.2 31 -11.5 11.3
10:45 1023 30.21 852 25.16 4.5 40 30 -11.5 11.3
10:50 1023 30.21 852 25.16 4.6 40.3 31 -11.3 11.7
10:55 1023 30.21 852 25.16 4.9 40.9 30 -11.3 11.7
11:00 1023 30.21 852 25.16 4.6 40.3 31 -11.1 12
11:05 1023 30.21 852 25.16 4.4 39.9 31 -11.2 11.9
11:10 1023 30.21 852 25.16 4.2 39.6 32 -11 12.2
11:15 1023 30.21 852 25.16 4.5 40.1 31 -11.1 12
11:20 1023 30.21 852 25.16 4.6 40.4 30 -11.4 11.5
11:25 1023 30.21 852 25.16 4.7 40.4 31 -11.2 11.9
11:30 1023 30.21 852 25.16 4.9 40.9 30 -11.4 11.5
11:35 1023 30.21 852 25.16 5.8 42.4 29 -10.8 12.6
11:40 1023 30.21 852 25.16 5.5 41.9 30 -10.7 12.7
11:45 1023 30.21 852 25.16 4.8 40.6 31 -11 12.2
11:50 1023 30.21 852 25.16 4.8 40.7 32 -10.6 12.9
11:55 1023 30.21 852 25.16 4.2 39.5 32 -11 12.3
12:00 1023 30.21 852 25.16 4.3 39.8 32 -11 12.1
12:05 1023 30.21 852 25.16 4.7 40.5 32 -10.8 12.6
12:10 1023 30.21 852 25.16 5 40.9 31 -10.6 12.9
12:15 1023 30.21 852 25.16 5 41 31 -10.8 12.6
12:20 1023 30.21 852 25.16 5.1 41.1 31 -10.7 12.8
12:25 1022 30.18 852 25.16 5.6 42 30 -10.6 12.9
12:30 1022 30.18 852 25.16 5.4 41.8 31 -10.4 13.3
12:35 1022 30.18 852 25.16 5.3 41.5 31 -10.6 12.9
12:40 1022 30.18 852 25.16 5.7 42.3 30 -10.5 13
12:45 1022 30.18 851 25.13 5.6 42.1 31 -10.3 13.5
12:50 1022 30.18 851 25.13 5.4 41.7 31 -10.5 13.2
12:55 1022 30.18 851 25.13 5.8 42.4 30 -10.6 13
13:00 1022 30.18 851 25.13 6.6 43.9 29 -10.3 13.5
13:05 1022 30.18 851 25.13 6.1 43 29 -10.5 13.2
13:10 1022 30.18 851 25.13 6.3 43.3 29 -10.6 12.9
13:15 1022 30.18 851 25.13 6.6 43.9 29 -10.2 13.7
13:20 1022 30.18 851 25.13 6.1 43.1 30 -10.1 13.8
13:25 1022 30.18 851 25.13 6 42.8 30 -10.1 13.8
13:30 1022 30.18 851 25.13 6 42.8 30 -10.1 13.8
13:35 1022 30.18 851 25.13 6.2 43.2 30 -10.2 13.7
13:40 1022 30.18 851 25.13 6.2 43.2 30 -10.3 13.4
13:45 1022 30.18 851 25.13 6.3 43.4 29 -10.4 13.4
13:50 1022 30.18 851 25.13 6.4 43.5 29 -10.4 13.3
13:55 1022 30.18 851 25.13 6.5 43.6 30 -9.9 14.2
14:00 1022 30.18 851 25.13 6.1 42.9 30 -10 13.9
14:05 1022 30.18 851 25.13 6.4 43.5 30 -10.1 13.8
14:10 1022 30.18 851 25.13 6.5 43.7 29 -10.2 13.7
14:15 1022 30.18 851 25.13 6.7 44 30 -9.9 14.2
14:20 1022 30.18 851 25.13 6.7 44 29 -9.9 14.1
14:25 1022 30.18 851 25.13 6.7 44.1 29 -10 14.1
14:30 1022 30.18 851 25.13 6.7 44 29 -10 14
14:35 1022 30.18 851 25.13 7.1 44.7 29 -9.9 14.1
14:40 1022 30.18 851 25.13 7.9 46.1 28 -9.7 14.6
14:45 1022 30.18 851 25.13 7.9 46.3 28 -9.5 14.9
14:50 1022 30.18 851 25.13 7.5 45.5 28 -9.7 14.5
14:55 1022 30.18 851 25.13 7.5 45.4 29 -9.6 14.7
15:00 1022 30.18 851 25.13 8.2 46.7 27 -9.5 14.9
15:05 1022 30.18 851 25.13 8.2 46.7 28 -9.2 15.4
15:10 1022 30.18 851 25.13 8.2 46.7 27 -9.5 14.9
15:15 1022 30.18 851 25.13 7.4 45.2 28 -9.8 14.4
15:20 1022 30.18 851 25.13 7.6 45.7 28 -9.8 14.3
15:25 1022 30.18 851 25.13 7.8 46 27 -10.1 13.9
15:30 1022 30.18 851 25.13 7.7 45.9 28 -9.8 14.3
15:35 1022 30.18 851 25.13 7.8 46 28 -9.8 14.4
15:40 1022 30.18 851 25.13 7.8 46.1 28 -9.8 14.4
15:45 1022 30.18 851 25.13 7.7 45.8 28 -9.5 14.9
15:50 1022 30.18 851 25.13 7.3 45.1 29 -9.8 14.4
15:55 1021 30.15 851 25.13 7.4 45.4 28 -9.8 14.3
16:00 1021 30.15 851 25.13 7.2 45 29 -9.8 14.4
16:05 1021 30.15 851 25.13 7.3 45.1 28 -9.9 14.1
16:10 1021 30.15 851 25.13 7.6 45.7 28 -9.5 14.8
16:15 1021 30.15 851 25.13 7.6 45.7 28 -9.6 14.8
16:20 1021 30.15 851 25.13 7.7 45.9 28 -9.6 14.7
16:25 1021 30.15 851 25.13 7.7 45.9 28 -9.7 14.6
16:30 1021 30.15 851 25.13 8.1 46.6 28 -9.3 15.2
16:35 1021 30.15 851 25.13 7.9 46.3 28 -9.5 15
16:40 1021 30.15 851 25.13 7.9 46.3 28 -9.5 14.9
16:45 1021 30.15 851 25.13 7.8 46.1 28 -9.4 15
16:50 1021 30.15 851 25.13 7.8 46.1 28 -9.5 14.9
16:55 1021 30.15 851 25.13 7.8 46.1 28 -9.6 14.8
17:00 1021 30.15 851 25.13 7.7 45.9 29 -9.4 15.2
17:05 1021 30.15 851 25.13 7.8 46 28 -9.5 14.9
17:10 1021 30.15 851 25.13 7.8 46.1 28 -9.4 15
17:15 1021 30.15 850 25.1 8.1 46.5 27 -9.7 14.6
17:20 1021 30.15 850 25.1 8.2 46.8 27 -9.6 14.8
17:25 1021 30.15 850 25.1 8.3 47 28 -9.3 15.3
17:30 1021 30.15 850 25.1 8.2 46.8 28 -9.4 15.2
17:35 1021 30.15 850 25.1 8.1 46.7 28 -9.4 15.1
17:40 1021 30.15 850 25.1 8 46.5 28 -9.5 15
17:45 1021 30.15 850 25.1 8 46.4 28 -9.4 15.1
17:50 1021 30.15 850 25.1 8 46.3 28 -9.3 15.3
17:55 1021 30.15 850 25.1 7.9 46.2 28 -9.5 14.9
18:00 1021 30.15 850 25.1 7.8 46.1 29 -9.3 15.3
18:05 1021 30.15 850 25.1 7.7 45.9 29 -9.2 15.4
18:10 1021 30.15 850 25.1 7.7 45.9 29 -9.2 15.5
18:15 1021 30.15 850 25.1 7.8 46 29 -9.2 15.5
18:20 1021 30.15 850 25.1 7.7 45.8 29 -9.2 15.5
18:25 1021 30.15 850 25.1 7.6 45.7 29 -9.2 15.5
18:30 1021 30.15 850 25.1 7.6 45.6 29 -9.4 15
18:35 1021 30.15 850 25.1 7.5 45.4 29 -9.3 15.3
18:40 1021 30.15 850 25.1 7.3 45.1 30 -9.1 15.6
18:45 1021 30.15 850 25.1 7.1 44.8 30 -9.3 15.3
18:50 1021 30.15 850 25.1 7.1 44.7 31 -9.1 15.7
18:55 1021 30.15 850 25.1 6.9 44.4 32 -8.9 16
19:00 1021 30.15 850 25.1 6.6 43.9 33 -8.7 16.3
19:05 1021 30.15 850 25.1 6.3 43.4 33 -8.8 16.1
19:10 1021 30.15 850 25.1 6.1 43 33 -8.8 16.1
19:15 1021 30.15 850 25.1 5.9 42.6 34 -8.9 16.1
19:20 1021 30.15 850 25.1 5.7 42.2 34 -8.9 16
19:25 1021 30.15 850 25.1 5.4 41.7 35 -8.7 16.3
19:30 1021 30.15 850 25.1 5.1 41.2 37 -8.5 16.7
19:35 1021 30.15 850 25.1 4.8 40.6 38 -8.5 16.7
19:40 1021 30.15 850 25.1 4.7 40.4 38 -8.4 16.9
19:45 1021 30.15 850 25.1 4.7 40.4 39 -8.2 17.3
19:50 1021 30.15 850 25.1 4.4 39.9 42 -7.6 18.4
19:55 1021 30.15 850 25.1 4.1 39.3 42 -7.7 18.2
20:00 1021 30.15 850 25.1 4 39.3 42 -7.7 18.1
20:05 1021 30.15 850 25.1 4 39.2 43 -7.4 18.6
20:10 1021 30.15 850 25.1 3.9 39 44 -7.2 19.1
20:15 1021 30.15 850 25.1 3.8 38.9 43 -7.6 18.3
20:20 1021 30.15 850 25.1 3.7 38.7 45 -7.1 19.3
20:25 1021 30.15 850 25.1 3.7 38.6 46 -6.9 19.6
20:30 1021 30.15 850 25.1 3.6 38.5 47 -6.7 19.9
20:35 1021 30.15 850 25.1 3.5 38.2 47 -6.7 19.9
20:40 1021 30.15 850 25.1 3.4 38.2 48 -6.5 20.3
20:45 1021 30.15 850 25.1 3.2 37.8 50 -6.1 21
20:50 1021 30.15 850 25.1 3.1 37.6 50 -6.3 20.7
20:55 1021 30.15 850 25.1 3.2 37.8 50 -6.3 20.6
21:00 1021 30.15 850 25.1 3.1 37.7 50 -6.2 20.9
21:05 1021 30.15 850 25.1 3 37.4 52 -5.8 21.5
21:10 1021 30.15 850 25.1 2.8 37.1 54 -5.6 21.9
21:15 1021 30.15 850 25.1 2.7 36.8 54 -5.7 21.7
21:20 1021 30.15 850 25.1 2.6 36.7 53 -6 21.2
21:25 1021 30.15 850 25.1 2.8 37 52 -6 21.1
21:30 1021 30.15 850 25.1 2.8 37 54 -5.7 21.7
21:35 1021 30.15 850 25.1 2.7 36.8 52 -6.3 20.6
21:40 1021 30.15 850 25.1 2.7 36.8 52 -6.2 20.8
21:45 1021 30.15 850 25.1 2.6 36.6 51 -6.6 20.2
21:50 1021 30.15 850 25.1 2.7 36.8 51 -6.4 20.5
21:55 1021 30.15 850 25.1 2.4 36.3 54 -6.1 21
22:00 1021 30.15 850 25.1 2 35.6 55 -6.1 21.1
22:05 1021 30.15 850 25.1 2 35.5 54 -6.5 20.3
22:10 1021 30.15 850 25.1 2.1 35.9 53 -6.5 20.2
22:15 1021 30.15 850 25.1 2.2 35.9 54 -6.3 20.7
22:20 1021 30.15 850 25.1 1.7 35 57 -5.9 21.3
22:25 1021 30.15 850 25.1 1.4 34.5 56 -6.4 20.5
22:30 1021 30.15 850 25.1 1.7 35 55 -6.4 20.4
22:35 1021 30.15 850 25.1 1.7 35.1 55 -6.3 20.7
22:40 1021 30.15 850 25.1 1.7 35 55 -6.3 20.6
22:45 1021 30.15 850 25.1 1.7 35 57 -6.1 21.1
22:50 1021 30.15 850 25.1 1.5 34.7 55 -6.5 20.3
22:55 1021 30.15 850 25.1 1.6 35 54 -6.6 20.1
23:00 1021 30.15 850 25.1 1.8 35.3 52 -7 19.4
23:05 1021 30.15 850 25.1 2 35.5 53 -6.7 19.9
23:10 1021 30.15 850 25.1 1.9 35.5 51 -7.1 19.2
23:15 1021 30.15 850 25.1 1.9 35.4 52 -7.1 19.3
23:20 1021 30.15 850 25.1 1.8 35.3 51 -7.3 18.9
23:25 1021 30.15 850 25.1 1.9 35.3 51 -7.3 18.9
23:30 1021 30.15 850 25.1 1.9 35.4 51 -7.2 19
23:35 1020 30.12 850 25.1 1.9 35.4 51 -7.2 19
23:40 1020 30.12 850 25.1 1.8 35.2 52 -7.2 19.1
23:45 1020 30.12 850 25.1 1.7 35 52 -7.1 19.1
23:50 1020 30.12 850 25.1 1.6 34.9 52 -7.2 19.1
23:55 1020 30.12 850 25.1 1.5 34.6 52 -7.3 18.9
24:00 1020 30.12 850 25.1 1.4 34.5 53 -7.1 19.1